createdAt,value
2019-01-19T00:00:37.962Z,-2.10
2019-01-19T00:03:14.438Z,-2.00
2019-01-19T00:06:03.487Z,-1.90
2019-01-19T00:08:36.108Z,-1.90
2019-01-19T00:11:23.430Z,-1.90
2019-01-19T00:13:58.699Z,-1.90
2019-01-19T00:16:36.866Z,-2.00
2019-01-19T00:19:41.104Z,-2.00
2019-01-19T00:22:45.192Z,-2.00
2019-01-19T00:25:43.586Z,-1.80
2019-01-19T00:28:40.404Z,-1.80
2019-01-19T00:31:33.877Z,-1.80
2019-01-19T00:34:15.411Z,-1.80
2019-01-19T00:36:50.953Z,-1.90
2019-01-19T00:39:24.844Z,-2.00
2019-01-19T00:42:18.826Z,-2.00
2019-01-19T00:45:16.048Z,-2.10
2019-01-19T00:47:57.760Z,-2.10
2019-01-19T00:50:49.338Z,-2.10
2019-01-19T00:53:42.529Z,-2.20
2019-01-19T00:56:39.872Z,-2.20
2019-01-19T00:59:12.581Z,-2.30
2019-01-19T01:01:45.261Z,-2.20
2019-01-19T01:04:26.347Z,-2.30
2019-01-19T01:07:16.770Z,-2.30
2019-01-19T01:10:08.838Z,-2.30
2019-01-19T01:12:56.349Z,-2.30
2019-01-19T01:15:50.140Z,-2.30
2019-01-19T01:18:31.109Z,-2.20
2019-01-19T01:21:15.848Z,-2.10
2019-01-19T01:23:54.209Z,-2.20
2019-01-19T01:26:26.912Z,-2.30
2019-01-19T01:29:30.711Z,-2.40
2019-01-19T01:32:21.089Z,-2.40
2019-01-19T01:35:19.337Z,-2.50
2019-01-19T01:37:58.052Z,-2.50
2019-01-19T01:40:35.984Z,-2.50
2019-01-19T01:43:17.503Z,-2.50
2019-01-19T01:46:08.196Z,-2.50
2019-01-19T01:48:40.885Z,-2.50
2019-01-19T01:51:14.987Z,-2.60
2019-01-19T01:53:59.412Z,-2.50
2019-01-19T01:56:29.127Z,-2.50
2019-01-19T01:59:01.800Z,-2.50
2019-01-19T02:01:40.444Z,-2.50
2019-01-19T02:04:38.489Z,-2.40
2019-01-19T02:07:19.777Z,-2.40
2019-01-19T02:10:26.818Z,-2.30
2019-01-19T02:13:05.152Z,-2.10
2019-01-19T02:15:43.462Z,-2.10
2019-01-19T02:18:28.070Z,-2.20
2019-01-19T02:21:33.537Z,-2.30
2019-01-19T02:24:25.262Z,-2.40
2019-01-19T02:27:03.961Z,-2.50
2019-01-19T02:29:53.018Z,-2.60
2019-01-19T02:32:25.726Z,-2.60
2019-01-19T02:35:20.714Z,-2.70
2019-01-19T02:38:09.576Z,-2.70
2019-01-19T02:40:42.354Z,-2.80
2019-01-19T02:43:27.136Z,-2.80
2019-01-19T02:46:17.557Z,-2.90
2019-01-19T02:48:58.790Z,-2.90
2019-01-19T02:51:46.177Z,-3.00
2019-01-19T02:54:27.649Z,-3.10
2019-01-19T02:57:30.973Z,-3.10
2019-01-19T03:00:20.270Z,-3.10
2019-01-19T03:02:52.969Z,-3.10
2019-01-19T03:05:37.556Z,-3.20
2019-01-19T03:08:28.192Z,-3.20
2019-01-19T03:11:12.492Z,-3.30
2019-01-19T03:13:48.215Z,-3.30
2019-01-19T03:16:29.883Z,-3.40
2019-01-19T03:19:11.056Z,-3.40
2019-01-19T03:21:58.691Z,-3.40
2019-01-19T03:24:31.313Z,-3.40
2019-01-19T03:27:12.957Z,-3.50
2019-01-19T03:30:00.569Z,-3.60
2019-01-19T03:32:57.071Z,-3.60
2019-01-19T03:35:32.582Z,-3.60
2019-01-19T03:38:32.036Z,-3.60
2019-01-19T03:41:31.758Z,-3.70
2019-01-19T03:44:25.456Z,-3.70
2019-01-19T03:47:18.897Z,-3.70
2019-01-19T03:50:07.930Z,-3.70
2019-01-19T03:52:49.149Z,-3.70
2019-01-19T03:55:47.281Z,-3.60
2019-01-19T03:58:36.459Z,-3.60
2019-01-19T04:01:28.585Z,-3.70
2019-01-19T04:04:19.502Z,-3.80
2019-01-19T04:06:58.525Z,-3.80
2019-01-19T04:09:33.900Z,-3.80
2019-01-19T04:12:21.387Z,-3.80
2019-01-19T04:15:02.942Z,-3.80
2019-01-19T04:17:50.549Z,-3.80
2019-01-19T04:20:45.725Z,-3.80
2019-01-19T04:23:15.425Z,-3.80
2019-01-19T04:25:48.120Z,-3.80
2019-01-19T04:28:18.797Z,-3.70
2019-01-19T04:30:49.604Z,-3.60
2019-01-19T04:33:19.325Z,-3.50
2019-01-19T04:35:48.956Z,-3.60
2019-01-19T04:38:19.551Z,-3.60
2019-01-19T04:40:49.275Z,-3.60
2019-01-19T04:43:18.973Z,-3.60
2019-01-19T04:45:49.111Z,-3.50
2019-01-19T04:48:20.347Z,-3.50
2019-01-19T04:50:50.078Z,-3.60
2019-01-19T04:53:19.747Z,-3.60
2019-01-19T04:55:49.446Z,-3.60
2019-01-19T04:58:19.041Z,-3.70
2019-01-19T05:00:48.667Z,-3.70
2019-01-19T05:03:18.265Z,-3.60
2019-01-19T05:05:47.981Z,-3.50
2019-01-19T05:08:17.581Z,-3.70
2019-01-19T05:10:47.318Z,-3.70
2019-01-19T05:13:17.189Z,-3.70
2019-01-19T05:15:46.821Z,-3.80
2019-01-19T05:18:16.917Z,-3.80
2019-01-19T05:20:46.537Z,-3.60
2019-01-19T05:23:16.239Z,-3.60
2019-01-19T05:25:45.864Z,-3.60
2019-01-19T05:28:16.398Z,-3.60
2019-01-19T05:30:46.022Z,-3.70
2019-01-19T05:33:15.617Z,-3.70
2019-01-19T05:35:45.272Z,-3.80
2019-01-19T05:38:14.974Z,-3.80
2019-01-19T05:40:44.644Z,-3.80
2019-01-19T05:43:14.352Z,-3.70
2019-01-19T05:45:44.072Z,-3.80
2019-01-19T05:48:13.687Z,-3.80
2019-01-19T05:50:43.304Z,-3.80
2019-01-19T05:53:12.914Z,-3.80
2019-01-19T05:55:42.610Z,-3.80
2019-01-19T05:58:12.234Z,-3.90
2019-01-19T06:00:41.827Z,-3.80
2019-01-19T06:03:11.446Z,-3.80
2019-01-19T06:05:41.930Z,-3.70
2019-01-19T06:08:11.640Z,-3.80
2019-01-19T06:10:41.255Z,-3.70
2019-01-19T06:13:10.984Z,-3.70
2019-01-19T06:15:40.762Z,-3.70
2019-01-19T06:18:10.552Z,-3.70
2019-01-19T06:20:40.255Z,-3.70
2019-01-19T06:23:09.985Z,-3.70
2019-01-19T06:25:39.635Z,-3.70
2019-01-19T06:28:09.465Z,-3.80
2019-01-19T06:30:39.124Z,-3.80
2019-01-19T06:33:08.854Z,-3.90
2019-01-19T06:35:38.518Z,-4.00
2019-01-19T06:38:08.213Z,-4.00
2019-01-19T06:40:37.882Z,-4.00
2019-01-19T06:43:07.833Z,-4.00
2019-01-19T06:45:37.544Z,-4.00
2019-01-19T06:48:07.164Z,-4.10
2019-01-19T06:50:36.855Z,-4.10
2019-01-19T06:53:06.553Z,-4.10
2019-01-19T06:55:36.155Z,-4.20
2019-01-19T06:58:05.766Z,-4.20
2019-01-19T07:00:35.569Z,-4.20
2019-01-19T07:03:05.193Z,-4.10
2019-01-19T07:05:34.859Z,-4.20
2019-01-19T07:08:04.724Z,-4.20
2019-01-19T07:10:34.419Z,-4.10
2019-01-19T07:13:04.289Z,-4.10
2019-01-19T07:15:34.248Z,-4.00
2019-01-19T07:18:03.958Z,-4.10
2019-01-19T07:20:33.556Z,-3.90
2019-01-19T07:23:03.378Z,-3.80
2019-01-19T07:25:33.087Z,-3.80
2019-01-19T07:28:02.809Z,-3.80
2019-01-19T07:30:32.582Z,-3.80
2019-01-19T07:33:02.412Z,-3.70
2019-01-19T07:35:32.029Z,-3.60
2019-01-19T07:38:01.739Z,-3.70
2019-01-19T07:40:31.473Z,-3.80
2019-01-19T07:43:01.940Z,-3.80
2019-01-19T07:45:31.733Z,-3.70
2019-01-19T07:48:01.703Z,-3.70
2019-01-19T07:50:32.230Z,-3.60
2019-01-19T07:53:02.115Z,-3.60
2019-01-19T07:55:31.740Z,-3.40
2019-01-19T07:58:01.444Z,-3.30
2019-01-19T08:00:32.921Z,-3.30
2019-01-19T08:03:02.757Z,-3.30
2019-01-19T08:05:32.674Z,-3.30
2019-01-19T08:08:02.285Z,-3.30
2019-01-19T08:10:32.008Z,-3.30
2019-01-19T08:13:01.685Z,-3.20
2019-01-19T08:15:31.516Z,-3.20
2019-01-19T08:18:01.131Z,-3.20
2019-01-19T08:20:30.758Z,-3.10
2019-01-19T08:23:00.590Z,-3.10
2019-01-19T08:25:30.221Z,-3.10
2019-01-19T08:28:01.322Z,-3.10
2019-01-19T08:30:31.323Z,-3.10
2019-01-19T08:33:01.037Z,-3.00
2019-01-19T08:35:31.109Z,-2.90
2019-01-19T08:38:00.717Z,-2.80
2019-01-19T08:40:33.336Z,-2.70
2019-01-19T08:43:10.558Z,-2.60
2019-01-19T08:45:40.319Z,-2.50
2019-01-19T08:48:10.410Z,-2.30
2019-01-19T08:50:40.040Z,-2.20
2019-01-19T08:53:09.826Z,-2.20
2019-01-19T08:55:39.628Z,-2.10
2019-01-19T08:58:09.405Z,-2.10
2019-01-19T09:00:39.135Z,-2.10
2019-01-19T09:03:08.828Z,-2.10
2019-01-19T09:05:39.206Z,-2.00
2019-01-19T09:08:08.970Z,-2.00
2019-01-19T09:10:38.699Z,-1.90
2019-01-19T09:13:08.469Z,-1.90
2019-01-19T09:15:38.182Z,-1.90
2019-01-19T09:18:09.396Z,-1.80
2019-01-19T09:20:39.120Z,-1.80
2019-01-19T09:23:16.440Z,-1.70
2019-01-19T09:25:46.058Z,-1.70
2019-01-19T09:28:15.869Z,-1.70
2019-01-19T09:30:45.701Z,-1.70
2019-01-19T09:33:15.341Z,-1.60
2019-01-19T09:35:45.095Z,-1.50
2019-01-19T09:38:14.773Z,-1.50
2019-01-19T09:40:44.394Z,-1.40
2019-01-19T09:43:14.186Z,-1.40
2019-01-19T09:45:43.877Z,-1.40
2019-01-19T09:48:13.557Z,-1.40
2019-01-19T09:50:43.190Z,-1.40
2019-01-19T09:53:12.786Z,-1.40
2019-01-19T09:55:42.404Z,-1.50
2019-01-19T09:58:12.114Z,-1.50
2019-01-19T10:00:45.727Z,-1.60
2019-01-19T10:03:14.171Z,-1.60
2019-01-19T10:05:43.796Z,-1.60
2019-01-19T10:08:13.398Z,-1.60
2019-01-19T10:10:43.921Z,-1.50
2019-01-19T10:13:13.581Z,-1.40
2019-01-19T10:15:43.200Z,-1.40
2019-01-19T10:18:12.982Z,-1.40
2019-01-19T10:20:47.349Z,-1.40
2019-01-19T10:23:17.437Z,-1.30
2019-01-19T10:25:47.169Z,-1.30
2019-01-19T10:28:17.069Z,-1.20
2019-01-19T10:30:46.872Z,-1.10
2019-01-19T10:33:16.481Z,-1.00
2019-01-19T10:35:46.208Z,-1.00
2019-01-19T10:38:15.803Z,-0.90
2019-01-19T10:40:46.045Z,-0.90
2019-01-19T10:43:15.662Z,-0.80
2019-01-19T10:45:45.528Z,-0.80
2019-01-19T10:48:15.196Z,-0.80
2019-01-19T10:50:44.838Z,-0.80
2019-01-19T10:53:14.423Z,-0.80
2019-01-19T10:55:44.137Z,-0.80
2019-01-19T10:58:13.950Z,-0.80
2019-01-19T11:00:43.576Z,-0.80
2019-01-19T11:03:13.750Z,-0.80
2019-01-19T11:05:43.377Z,-0.70
2019-01-19T11:08:13.524Z,-0.70
2019-01-19T11:10:43.157Z,-0.70
2019-01-19T11:13:12.762Z,-0.70
2019-01-19T11:15:42.487Z,-0.70
2019-01-19T11:18:12.272Z,-0.60
2019-01-19T11:20:41.887Z,-0.60
2019-01-19T11:23:11.555Z,-0.60
2019-01-19T11:25:41.285Z,-0.60
2019-01-19T11:28:10.901Z,-0.50
2019-01-19T11:30:40.814Z,-0.40
2019-01-19T11:33:10.428Z,-0.40
2019-01-19T11:35:40.052Z,-0.30
2019-01-19T11:38:12.035Z,-0.30
2019-01-19T11:40:40.970Z,-0.30
2019-01-19T11:43:10.850Z,-0.20
2019-01-19T11:45:40.551Z,-0.20
2019-01-19T11:48:10.180Z,-0.20
2019-01-19T11:50:39.785Z,-0.10
2019-01-19T11:53:09.487Z,-0.10
2019-01-19T11:55:39.259Z,0.00
2019-01-19T11:58:09.061Z,-0.10
2019-01-19T12:00:39.914Z,-0.20
2019-01-19T12:03:09.682Z,-0.30
2019-01-19T12:05:39.834Z,-0.30
2019-01-19T12:08:10.003Z,-0.30
2019-01-19T12:10:39.715Z,-0.40
2019-01-19T12:13:09.418Z,-0.30
2019-01-19T12:15:39.030Z,-0.30
2019-01-19T12:18:08.899Z,-0.20
2019-01-19T12:20:42.929Z,-0.20
2019-01-19T12:23:13.768Z,-0.20
2019-01-19T12:25:43.373Z,-0.20
2019-01-19T12:28:13.142Z,-0.20
2019-01-19T12:30:43.881Z,-0.20
2019-01-19T12:33:13.587Z,-0.10
2019-01-19T12:35:43.298Z,-0.10
2019-01-19T12:38:13.611Z,0.00
2019-01-19T12:40:43.228Z,-0.10
2019-01-19T12:43:15.547Z,-0.10
2019-01-19T12:45:55.473Z,0.00
2019-01-19T12:48:25.174Z,-0.10
2019-01-19T12:50:54.841Z,0.00
2019-01-19T12:53:24.744Z,0.00
2019-01-19T12:55:54.611Z,-0.10
2019-01-19T12:58:24.376Z,0.00
2019-01-19T13:00:53.986Z,-0.10
2019-01-19T13:03:25.600Z,0.00
2019-01-19T13:06:04.215Z,0.00
2019-01-19T13:08:35.822Z,0.10
2019-01-19T13:11:33.973Z,0.10
2019-01-19T13:14:04.071Z,0.10
2019-01-19T13:16:49.175Z,0.10
2019-01-19T13:19:24.739Z,0.00
2019-01-19T13:22:13.789Z,-0.10
2019-01-19T13:24:58.535Z,-0.10
2019-01-19T13:27:40.219Z,-0.20
2019-01-19T13:30:21.359Z,-0.10
2019-01-19T13:32:59.947Z,-0.10
2019-01-19T13:35:39.124Z,-0.20
2019-01-19T13:38:23.530Z,-0.20
2019-01-19T13:41:07.885Z,-0.20
2019-01-19T13:43:46.651Z,-0.20
2019-01-19T13:46:52.411Z,-0.20
2019-01-19T13:49:44.655Z,-0.10
2019-01-19T13:52:17.716Z,-0.20
2019-01-19T13:55:05.337Z,-0.10
2019-01-19T13:57:38.011Z,-0.10
2019-01-19T14:00:18.623Z,-0.10
2019-01-19T14:02:56.711Z,-0.20
2019-01-19T14:05:32.077Z,-0.20
2019-01-19T14:08:07.419Z,-0.20
2019-01-19T14:10:45.721Z,-0.20
2019-01-19T14:13:39.700Z,-0.20
2019-01-19T14:16:15.406Z,-0.30
2019-01-19T14:18:51.128Z,-0.30
2019-01-19T14:21:26.600Z,-0.30
2019-01-19T14:24:14.324Z,-0.30
2019-01-19T14:27:04.736Z,-0.30
2019-01-19T14:29:40.108Z,-0.30
2019-01-19T14:32:38.318Z,-0.30
2019-01-19T14:35:13.779Z,-0.30
2019-01-19T14:38:09.326Z,-0.30
2019-01-19T14:40:44.851Z,-0.30
2019-01-19T14:43:31.720Z,-0.40
2019-01-19T14:46:16.174Z,-0.40
2019-01-19T14:48:57.473Z,-0.40
2019-01-19T14:51:41.998Z,-0.40
2019-01-19T14:54:20.397Z,-0.30
2019-01-19T14:57:13.975Z,-0.30
2019-01-19T15:00:13.569Z,-0.20
2019-01-19T15:03:07.177Z,-0.20
2019-01-19T15:05:42.632Z,-0.20
2019-01-19T15:08:17.971Z,-0.10
2019-01-19T15:10:53.318Z,-0.10
2019-01-19T15:13:40.603Z,-0.10
2019-01-19T15:16:18.949Z,0.00
2019-01-19T15:18:58.636Z,0.00
2019-01-19T15:21:56.455Z,-0.10
2019-01-19T15:24:40.925Z,-0.20
2019-01-19T15:27:25.204Z,-0.20
2019-01-19T15:30:21.717Z,-0.30
2019-01-19T15:32:57.410Z,-0.30
2019-01-19T15:35:38.983Z,-0.40
2019-01-19T15:38:20.352Z,-0.30
2019-01-19T15:40:58.743Z,-0.30
2019-01-19T15:43:43.335Z,-0.30
2019-01-19T15:46:21.840Z,-0.40
2019-01-19T15:49:18.396Z,-0.40
2019-01-19T15:52:07.521Z,-0.50
2019-01-19T15:54:40.193Z,-0.60
2019-01-19T15:57:30.732Z,-0.50
2019-01-19T16:00:21.060Z,-0.30
2019-01-19T16:03:08.888Z,-0.20
2019-01-19T16:05:41.583Z,-0.20
2019-01-19T16:08:16.968Z,-0.30
2019-01-19T16:11:04.472Z,-0.20
2019-01-19T16:13:52.748Z,-0.30
2019-01-19T16:16:34.235Z,-0.20
2019-01-19T16:19:21.925Z,0.00
2019-01-19T16:21:57.329Z,0.00
2019-01-19T16:24:30.000Z,0.00
2019-01-19T16:27:31.270Z,-0.20
2019-01-19T16:30:06.952Z,-0.30
2019-01-19T16:32:39.665Z,-0.40
2019-01-19T16:35:18.287Z,-0.40
2019-01-19T16:38:06.077Z,-0.40
2019-01-19T16:40:47.534Z,-0.30
2019-01-19T16:43:20.246Z,-0.20
2019-01-19T16:46:13.897Z,-0.30
2019-01-19T16:48:49.479Z,-0.30
2019-01-19T16:51:28.100Z,-0.40
2019-01-19T16:54:03.891Z,-0.40
2019-01-19T16:56:52.829Z,-0.50
2019-01-19T16:59:40.567Z,-0.60
2019-01-19T17:02:32.430Z,-0.70
2019-01-19T17:05:13.886Z,-0.60
2019-01-19T17:07:55.220Z,-0.50
2019-01-19T17:11:02.574Z,-0.50
2019-01-19T17:13:42.231Z,-0.60
2019-01-19T17:16:26.853Z,-0.50
2019-01-19T17:19:03.573Z,-0.50
2019-01-19T17:21:39.153Z,-0.40
2019-01-19T17:24:17.833Z,-0.50
2019-01-19T17:26:59.523Z,-0.50
2019-01-19T17:29:32.431Z,-0.40
2019-01-19T17:32:16.902Z,-0.50
2019-01-19T17:35:17.735Z,-0.40
2019-01-19T17:37:57.598Z,-0.40
2019-01-19T17:41:00.693Z,-0.60
2019-01-19T17:43:38.947Z,-0.60
2019-01-19T17:46:17.330Z,-0.60
2019-01-19T17:48:50.436Z,-0.50
2019-01-19T17:51:25.810Z,-0.40
2019-01-19T17:54:10.673Z,-0.30
2019-01-19T17:56:49.121Z,-0.10
2019-01-19T17:59:30.675Z,-0.20
2019-01-19T18:02:06.197Z,-0.30
2019-01-19T18:04:38.897Z,-0.30
2019-01-19T18:07:14.191Z,-0.40
2019-01-19T18:09:49.816Z,-0.60
2019-01-19T18:12:43.093Z,-0.70
2019-01-19T18:15:24.917Z,-0.60
2019-01-19T18:18:06.113Z,-0.50
2019-01-19T18:21:06.953Z,-0.40
2019-01-19T18:23:39.641Z,-0.60
2019-01-19T18:26:18.110Z,-0.60
2019-01-19T18:29:15.284Z,-0.40
2019-01-19T18:31:53.789Z,-0.40
2019-01-19T18:34:53.497Z,-0.40
2019-01-19T18:37:48.410Z,-0.50
2019-01-19T18:40:46.484Z,-0.50
2019-01-19T18:43:33.904Z,-0.60
2019-01-19T18:46:09.263Z,-0.60
2019-01-19T18:48:56.554Z,-0.60
2019-01-19T18:51:45.560Z,-0.60
2019-01-19T18:54:38.857Z,-0.80
2019-01-19T18:57:27.872Z,-0.80
2019-01-19T19:00:21.328Z,-0.80
2019-01-19T19:02:57.028Z,-0.90
2019-01-19T19:05:35.673Z,-0.80
2019-01-19T19:08:14.313Z,-0.80
2019-01-19T19:10:55.623Z,-0.90
2019-01-19T19:13:44.678Z,-0.90
2019-01-19T19:16:33.775Z,-0.90
2019-01-19T19:19:12.588Z,-1.00
2019-01-19T19:21:50.967Z,-1.10
2019-01-19T19:24:32.349Z,-1.10
2019-01-19T19:27:29.202Z,-1.10
2019-01-19T19:30:10.331Z,-1.10
2019-01-19T19:32:45.581Z,-1.10
2019-01-19T19:35:23.743Z,-1.10
2019-01-19T19:38:18.884Z,-1.00
2019-01-19T19:41:02.827Z,-1.00
2019-01-19T19:43:35.504Z,-0.90
2019-01-19T19:46:11.925Z,-1.00
2019-01-19T19:48:53.872Z,-1.00
2019-01-19T19:51:32.297Z,-0.90
2019-01-19T19:54:01.893Z,-0.90
2019-01-19T19:56:30.453Z,-0.90
2019-01-19T19:59:00.061Z,-0.90
2019-01-19T20:01:29.688Z,-0.90
2019-01-19T20:03:59.311Z,-1.00
2019-01-19T20:06:28.950Z,-1.10
2019-01-19T20:08:58.562Z,-1.20
2019-01-19T20:11:28.257Z,-1.40
2019-01-19T20:13:57.869Z,-1.50
2019-01-19T20:16:27.603Z,-1.40
2019-01-19T20:18:57.275Z,-1.40
2019-01-19T20:21:26.945Z,-1.60
2019-01-19T20:23:56.737Z,-1.60
2019-01-19T20:26:26.578Z,-1.50
2019-01-19T20:28:56.241Z,-1.40
2019-01-19T20:31:25.998Z,-1.40
2019-01-19T20:33:55.653Z,-1.40
2019-01-19T20:36:25.735Z,-1.30
2019-01-19T20:38:55.396Z,-1.30
2019-01-19T20:41:25.028Z,-1.40
2019-01-19T20:43:54.633Z,-1.50
2019-01-19T20:46:24.595Z,-1.60
2019-01-19T20:48:54.374Z,-1.60
2019-01-19T20:51:24.077Z,-1.60
2019-01-19T20:53:53.709Z,-1.70
2019-01-19T20:56:23.298Z,-1.70
2019-01-19T20:58:54.007Z,-1.80
2019-01-19T21:01:23.878Z,-1.70
2019-01-19T21:03:55.182Z,-1.70
2019-01-19T21:06:24.809Z,-1.70
2019-01-19T21:08:54.417Z,-1.80
2019-01-19T21:11:24.035Z,-1.80
2019-01-19T21:13:54.807Z,-1.80
2019-01-19T21:16:26.006Z,-1.80
2019-01-19T21:18:55.541Z,-1.80
2019-01-19T21:21:25.377Z,-1.90
2019-01-19T21:23:54.967Z,-2.20
2019-01-19T21:26:24.705Z,-2.10
2019-01-19T21:28:54.299Z,-2.10
2019-01-19T21:31:24.135Z,-2.20
2019-01-19T21:33:53.745Z,-2.20
2019-01-19T21:36:23.446Z,-2.10
2019-01-19T21:38:53.125Z,-2.10
2019-01-19T21:41:22.972Z,-2.10
2019-01-19T21:43:52.565Z,-2.10
2019-01-19T21:46:22.197Z,-2.10
2019-01-19T21:48:51.871Z,-2.20
2019-01-19T21:51:21.496Z,-2.30
2019-01-19T21:53:51.099Z,-2.20
2019-01-19T21:56:20.745Z,-2.20
2019-01-19T21:58:50.453Z,-2.10
2019-01-19T22:01:20.189Z,-2.10
2019-01-19T22:03:49.785Z,-2.20
2019-01-19T22:06:19.428Z,-2.20
2019-01-19T22:08:49.036Z,-2.20
2019-01-19T22:11:18.984Z,-2.10
2019-01-19T22:13:48.715Z,-2.10
2019-01-19T22:16:18.735Z,-2.10
2019-01-19T22:18:48.447Z,-2.20
2019-01-19T22:21:18.157Z,-2.30
2019-01-19T22:23:47.899Z,-2.30
2019-01-19T22:26:18.676Z,-2.20
2019-01-19T22:28:48.605Z,-2.30
2019-01-19T22:31:18.409Z,-2.50
2019-01-19T22:33:48.145Z,-2.50
2019-01-19T22:36:18.348Z,-2.50
2019-01-19T22:38:47.995Z,-2.50
2019-01-19T22:41:17.694Z,-2.40
2019-01-19T22:43:47.630Z,-2.50
2019-01-19T22:46:17.305Z,-2.60
2019-01-19T22:48:47.205Z,-2.60
2019-01-19T22:51:16.913Z,-2.70
2019-01-19T22:53:46.645Z,-2.80
2019-01-19T22:56:16.453Z,-2.70
2019-01-19T22:58:46.088Z,-2.60
2019-01-19T23:01:30.616Z,-2.70
2019-01-19T23:04:00.349Z,-2.70
2019-01-19T23:06:38.703Z,-2.90
2019-01-19T23:09:10.555Z,-3.00
2019-01-19T23:11:40.221Z,-3.00
2019-01-19T23:14:10.689Z,-2.90
2019-01-19T23:16:40.650Z,-2.70
2019-01-19T23:19:10.643Z,-2.70
2019-01-19T23:21:40.253Z,-2.80
2019-01-19T23:24:09.888Z,-2.80
2019-01-19T23:26:39.554Z,-2.90
2019-01-19T23:29:09.281Z,-2.90
2019-01-19T23:31:39.294Z,-2.80
2019-01-19T23:34:09.784Z,-2.70
2019-01-19T23:36:39.392Z,-2.80
2019-01-19T23:39:09.755Z,-2.90
2019-01-19T23:41:39.496Z,-2.90
2019-01-19T23:44:09.212Z,-2.80
2019-01-19T23:46:38.884Z,-2.90
2019-01-19T23:49:08.519Z,-2.80
2019-01-19T23:51:38.134Z,-2.80
2019-01-19T23:54:07.858Z,-2.90
2019-01-19T23:56:37.447Z,-2.80
2019-01-19T23:59:07.161Z,-2.90
